KNTD/NTD METAR and TAF weather

Enter ICAO airport designator
Station Type Date Time Source
KNTD METAR 2022/07/01 01:52 UTC NOAA

KNTD 010152Z 28008KT 8SM SCT170 20/13 A2995 RMK AO2 SLP143 T02000133 VISNO N $


Station Type Date Time Source
KNTD Decoded METAR 2022/07/01 01:52 UTC NOAA

NAWCWPNS POINT MUGU, CA, CA, United States (KNTD) 34-07N 119-07W 2M
Jun 30, 2022 - 09:52 PM EDT / 2022.07.01 0152 UTC
Wind: from the W (280 degrees) at 9 MPH (8 KT):0
Visibility: 8 mile(s):0
Sky conditions: partly cloudy
Temperature: 68.0 F (20.0 C)
Dew Point: 55.9 F (13.3 C)
Relative Humidity: 65%
Pressure (altimeter): 29.95 in. Hg (1014 hPa)
ob: KNTD 010152Z 28008KT 8SM SCT170 20/13 A2995 RMK AO2 SLP143 T02000133 VISNO N
cycle: 2

Station Type Date Time Source
KNTD TAF 2022/06/30 23:54 UTC NOAA

TAF KNTD 3023/0123 28009KT 9000 HZ FEW008 FEW210 QNH2993INS
FM010300 VRB06KT 8000 HZ SCT008 QNH2988INS
TEMPO 0103/0109 BKN008
FM011200 VRB03KT 6000 HZ OVC006 QNH3001INS
FM011900 23008KT 9000 HZ FEW005 FEW120 QNH2999INS AUTOMATED SENSOR METWATCH 0106 TIL 0113 T15/0114Z T22/0120Z FS30029

Example: see airport list